createdAt,value
2018-07-20T00:04:13.810Z,21.30
2018-07-20T00:11:37.100Z,21.10
2018-07-20T00:14:04.897Z,21.20
2018-07-20T00:16:32.635Z,21.30
2018-07-20T00:19:00.397Z,21.20
2018-07-20T00:21:28.143Z,21.00
2018-07-20T00:23:55.884Z,21.20
2018-07-20T00:26:23.600Z,20.90
2018-07-20T00:31:18.976Z,20.90
2018-07-20T00:33:46.738Z,20.80
2018-07-20T00:36:14.451Z,20.80
2018-07-20T00:38:42.211Z,20.80
2018-07-20T00:41:09.973Z,20.70
2018-07-20T00:43:37.718Z,20.60
2018-07-20T00:46:05.471Z,20.50
2018-07-20T00:48:33.223Z,20.40
2018-07-20T00:51:00.947Z,20.30
2018-07-20T00:53:28.727Z,20.50
2018-07-20T00:55:56.475Z,20.50
2018-07-20T00:58:24.271Z,20.50
2018-07-20T01:00:52.091Z,20.20
2018-07-20T01:03:19.843Z,20.40
2018-07-20T01:05:47.531Z,20.10
2018-07-20T01:08:15.262Z,19.90
2018-07-20T01:10:42.955Z,20.20
2018-07-20T01:13:10.691Z,19.90
2018-07-20T01:15:38.461Z,19.70
2018-07-20T01:18:06.301Z,20.20
2018-07-20T01:20:34.063Z,19.70
2018-07-20T01:23:01.808Z,19.70
2018-07-20T01:25:29.552Z,19.80
2018-07-20T01:27:57.366Z,19.70
2018-07-20T01:30:25.102Z,19.80
2018-07-20T01:32:52.963Z,19.50
2018-07-20T01:35:20.711Z,19.40
2018-07-20T01:37:48.489Z,19.50
2018-07-20T01:40:16.237Z,19.60
2018-07-20T01:42:43.993Z,19.10
2018-07-20T01:47:39.372Z,19.10
2018-07-20T01:50:07.168Z,19.00
2018-07-20T01:52:34.949Z,19.00
2018-07-20T01:55:02.713Z,19.10
2018-07-20T01:59:58.072Z,19.20
2018-07-20T02:02:25.828Z,18.80
2018-07-20T02:07:21.174Z,18.80
2018-07-20T02:09:48.891Z,18.90
2018-07-20T02:12:16.663Z,19.20
2018-07-20T02:14:44.416Z,19.00
2018-07-20T02:17:12.184Z,18.70
2018-07-20T02:19:39.889Z,19.00
2018-07-20T02:22:07.636Z,18.90
2018-07-20T02:24:35.425Z,18.30
2018-07-20T02:27:03.253Z,18.40
2018-07-20T02:29:31.085Z,18.50
2018-07-20T02:31:58.815Z,18.50
2018-07-20T02:34:26.583Z,18.40
2018-07-20T02:36:54.330Z,18.40
2018-07-20T02:39:22.107Z,18.50
2018-07-20T02:41:49.877Z,18.60
2018-07-20T02:44:17.635Z,18.50
2018-07-20T02:46:45.407Z,18.30
2018-07-20T02:49:13.182Z,18.60
2018-07-20T02:51:40.972Z,18.50
2018-07-20T02:54:08.791Z,18.60
2018-07-20T02:56:36.563Z,18.30
2018-07-20T02:59:04.347Z,18.00
2018-07-20T03:01:32.147Z,18.10
2018-07-20T03:03:59.903Z,18.20
2018-07-20T03:06:27.807Z,18.10
2018-07-20T03:11:23.290Z,18.20
2018-07-20T03:13:51.101Z,18.20
2018-07-20T03:16:19.009Z,18.30
2018-07-20T03:18:46.815Z,18.10
2018-07-20T03:21:14.605Z,18.00
2018-07-20T03:23:42.403Z,18.00
2018-07-20T03:26:10.132Z,18.10
2018-07-20T03:28:37.934Z,17.80
2018-07-20T03:31:05.771Z,17.70
2018-07-20T03:33:33.566Z,18.20
2018-07-20T03:36:01.356Z,17.80
2018-07-20T03:38:29.163Z,18.10
2018-07-20T03:40:56.895Z,17.90
2018-07-20T03:45:52.312Z,18.10
2018-07-20T03:48:20.099Z,18.20
2018-07-20T03:53:15.508Z,18.00
2018-07-20T03:55:43.271Z,18.10
2018-07-20T03:58:11.067Z,17.70
2018-07-20T04:00:38.854Z,17.80
2018-07-20T04:03:06.732Z,18.00
2018-07-20T04:05:34.472Z,17.50
2018-07-20T04:08:02.235Z,17.90
2018-07-20T04:10:29.981Z,17.90
2018-07-20T04:12:57.760Z,18.30
2018-07-20T04:15:25.498Z,17.80
2018-07-20T04:17:53.280Z,17.90
2018-07-20T04:20:21.022Z,18.20
2018-07-20T04:22:48.831Z,17.80
2018-07-20T04:25:16.578Z,17.90
2018-07-20T04:27:44.411Z,17.80
2018-07-20T04:30:13.963Z,18.20
2018-07-20T04:32:41.842Z,18.10
2018-07-20T04:35:10.315Z,17.90
2018-07-20T04:37:38.140Z,18.50
2018-07-20T04:40:06.348Z,18.20
2018-07-20T04:42:34.565Z,18.20
2018-07-20T04:45:02.372Z,18.30
2018-07-20T04:47:30.124Z,17.60
2018-07-20T04:49:57.904Z,18.00
2018-07-20T04:57:20.940Z,18.30
2018-07-20T04:59:48.692Z,18.30
2018-07-20T05:02:16.536Z,18.10
2018-07-20T05:04:44.280Z,18.10
2018-07-20T05:09:39.668Z,18.50
2018-07-20T05:12:07.427Z,18.40
2018-07-20T05:14:35.198Z,18.60
2018-07-20T05:17:02.971Z,18.60
2018-07-20T05:19:30.790Z,18.70
2018-07-20T05:21:58.521Z,18.80
2018-07-20T05:26:53.990Z,18.60
2018-07-20T05:29:22.262Z,18.70
2018-07-20T05:31:50.082Z,18.60
2018-07-20T05:34:17.953Z,18.70
2018-07-20T05:36:45.751Z,18.60
2018-07-20T05:39:13.567Z,18.80
2018-07-20T05:41:41.497Z,18.50
2018-07-20T05:44:09.301Z,18.70
2018-07-20T05:46:37.159Z,18.80
2018-07-20T05:49:04.959Z,18.80
2018-07-20T05:51:32.751Z,19.00
2018-07-20T05:54:00.599Z,18.60
2018-07-20T05:56:28.343Z,18.80
2018-07-20T05:58:56.079Z,19.10
2018-07-20T06:01:23.873Z,19.50
2018-07-20T06:03:51.612Z,19.20
2018-07-20T06:06:19.355Z,19.40
2018-07-20T06:08:47.110Z,19.60
2018-07-20T06:11:14.904Z,19.70
2018-07-20T06:13:42.691Z,19.70
2018-07-20T06:16:10.460Z,19.50
2018-07-20T06:18:38.246Z,19.80
2018-07-20T06:23:34.212Z,19.80
2018-07-20T06:26:01.992Z,19.50
2018-07-20T06:28:29.988Z,20.10
2018-07-20T06:30:57.739Z,19.90
2018-07-20T06:33:25.496Z,20.10
2018-07-20T06:35:53.251Z,19.90
2018-07-20T06:38:21.035Z,20.10
2018-07-20T06:40:48.764Z,20.40
2018-07-20T06:43:16.545Z,20.30
2018-07-20T06:45:44.311Z,20.10
2018-07-20T06:48:12.067Z,20.10
2018-07-20T06:50:39.819Z,20.10
2018-07-20T06:53:07.648Z,20.60
2018-07-20T06:55:35.384Z,20.50
2018-07-20T06:58:03.176Z,20.70
2018-07-20T07:00:30.955Z,20.70
2018-07-20T07:05:26.376Z,20.70
2018-07-20T07:07:54.147Z,20.90
2018-07-20T07:12:49.533Z,21.30
2018-07-20T07:15:17.398Z,21.60
2018-07-20T07:20:12.699Z,21.50
2018-07-20T07:22:40.467Z,21.80
2018-07-20T07:25:08.188Z,22.10
2018-07-20T07:27:35.951Z,21.80
2018-07-20T07:32:31.943Z,21.70
2018-07-20T07:34:59.711Z,22.40
2018-07-20T07:37:27.495Z,22.10
2018-07-20T07:39:55.368Z,22.20
2018-07-20T07:42:23.123Z,22.30
2018-07-20T07:44:50.882Z,22.70
2018-07-20T07:47:18.592Z,23.10
2018-07-20T07:49:46.340Z,23.40
2018-07-20T07:52:14.093Z,22.70
2018-07-20T07:54:41.857Z,22.80
2018-07-20T07:57:10.134Z,23.40
2018-07-20T07:59:37.935Z,23.80
2018-07-20T08:04:33.425Z,23.90
2018-07-20T08:07:01.112Z,24.10
2018-07-20T08:09:29.226Z,24.20
2018-07-20T08:11:56.986Z,24.10
2018-07-20T08:14:24.760Z,24.20
2018-07-20T08:16:52.564Z,24.20
2018-07-20T08:19:20.295Z,24.00
2018-07-20T08:21:48.088Z,24.20
2018-07-20T08:24:15.856Z,23.90
2018-07-20T08:26:43.608Z,24.40
2018-07-20T08:29:11.398Z,24.40
2018-07-20T08:31:39.166Z,24.40
2018-07-20T08:34:06.886Z,25.30
2018-07-20T08:39:03.095Z,26.30
2018-07-20T08:41:30.808Z,27.10
2018-07-20T08:43:58.543Z,27.10
2018-07-20T08:46:26.312Z,27.30
2018-07-20T08:48:54.095Z,28.40
2018-07-20T08:51:21.794Z,29.40
2018-07-20T08:53:49.516Z,30.40
2018-07-20T08:56:17.247Z,30.80
2018-07-20T09:01:12.646Z,32.10
2018-07-20T09:08:35.805Z,31.00
2018-07-20T09:11:03.607Z,30.40
2018-07-20T09:13:31.478Z,31.10
2018-07-20T09:15:59.235Z,31.20
2018-07-20T09:18:27.014Z,31.70
2018-07-20T09:20:54.798Z,31.90
2018-07-20T09:23:22.560Z,32.60
2018-07-20T09:25:50.315Z,32.50
2018-07-20T09:30:45.767Z,31.20
2018-07-20T09:33:13.565Z,32.00
2018-07-20T09:35:41.372Z,32.20
2018-07-20T09:38:09.122Z,32.20
2018-07-20T09:40:37.129Z,30.70
2018-07-20T09:43:04.986Z,30.30
2018-07-20T09:45:32.791Z,30.20
2018-07-20T09:48:00.555Z,32.70
2018-07-20T09:50:28.349Z,34.10
2018-07-20T09:55:23.847Z,32.30
2018-07-20T09:57:51.607Z,33.30
2018-07-20T10:00:23.884Z,34.10
2018-07-20T10:02:51.708Z,34.40
2018-07-20T10:05:19.580Z,34.20
2018-07-20T10:07:47.319Z,34.00
2018-07-20T10:12:42.813Z,34.70
2018-07-20T10:15:10.512Z,35.50
2018-07-20T10:20:05.905Z,33.90
2018-07-20T10:22:33.657Z,35.00
2018-07-20T10:25:01.356Z,34.30
2018-07-20T10:27:29.065Z,33.90
2018-07-20T10:29:56.758Z,34.70
2018-07-20T10:32:24.446Z,34.40
2018-07-20T10:34:52.141Z,35.00
2018-07-20T10:37:19.852Z,36.60
2018-07-20T10:39:47.527Z,38.00
2018-07-20T10:42:15.318Z,38.70
2018-07-20T10:49:38.156Z,37.30
2018-07-20T10:52:06.427Z,37.40
2018-07-20T10:54:34.138Z,37.80
2018-07-20T10:59:29.479Z,38.60
2018-07-20T11:01:57.182Z,38.90
2018-07-20T11:04:24.897Z,37.80
2018-07-20T11:06:52.591Z,37.50
2018-07-20T11:09:20.280Z,36.90
2018-07-20T11:11:47.991Z,36.10
2018-07-20T11:14:15.825Z,36.10
2018-07-20T11:16:43.626Z,35.40
2018-07-20T11:19:11.356Z,35.70
2018-07-20T11:21:39.731Z,35.60
2018-07-20T11:24:07.428Z,37.60
2018-07-20T11:26:35.226Z,38.70
2018-07-20T11:29:03.094Z,38.40
2018-07-20T11:31:30.850Z,38.20
2018-07-20T11:33:58.559Z,37.80
2018-07-20T11:36:26.362Z,37.70
2018-07-20T11:38:54.116Z,38.10
2018-07-20T11:41:21.990Z,38.00
2018-07-20T11:43:49.775Z,37.20
2018-07-20T11:46:18.520Z,36.90
2018-07-20T11:51:13.943Z,38.10
2018-07-20T11:56:09.357Z,37.60
2018-07-20T11:58:37.187Z,36.80
2018-07-20T12:01:04.966Z,36.60
2018-07-20T12:03:32.796Z,36.30
2018-07-20T12:06:00.571Z,36.30
2018-07-20T12:08:28.347Z,36.60
2018-07-20T12:10:56.095Z,37.00
2018-07-20T12:13:23.931Z,38.30
2018-07-20T12:18:19.351Z,37.40
2018-07-20T12:20:47.136Z,37.00
2018-07-20T12:25:42.689Z,37.00
2018-07-20T12:28:10.511Z,36.50
2018-07-20T12:30:38.235Z,37.10
2018-07-20T12:33:06.139Z,38.20
2018-07-20T12:35:33.908Z,37.90
2018-07-20T12:38:01.725Z,37.90
2018-07-20T12:40:29.554Z,37.00
2018-07-20T12:42:57.448Z,37.60
2018-07-20T12:45:25.316Z,37.70
2018-07-20T12:47:53.071Z,37.80
2018-07-20T12:50:20.920Z,37.90
2018-07-20T12:52:48.608Z,37.50
2018-07-20T12:55:16.381Z,37.90
2018-07-20T12:57:44.175Z,38.20
2018-07-20T13:00:12.088Z,36.50
2018-07-20T13:02:39.889Z,36.20
2018-07-20T13:05:07.720Z,36.60
2018-07-20T13:07:35.489Z,36.30
2018-07-20T13:10:03.627Z,36.30
2018-07-20T13:12:31.394Z,35.90
2018-07-20T13:22:22.238Z,34.30
2018-07-20T13:24:50.037Z,34.10
2018-07-20T13:27:18.704Z,34.20
2018-07-20T13:29:46.483Z,34.60
2018-07-20T13:34:41.946Z,34.60
2018-07-20T13:37:09.727Z,34.90
2018-07-20T13:39:37.524Z,34.10
2018-07-20T13:44:32.992Z,34.70
2018-07-20T13:47:00.819Z,34.50
2018-07-20T13:51:56.279Z,34.40
2018-07-20T13:54:24.010Z,35.20
2018-07-20T13:56:51.847Z,35.80
2018-07-20T13:59:19.668Z,36.10
2018-07-20T14:01:47.513Z,35.70
2018-07-20T14:06:43.035Z,35.30
2018-07-20T14:09:11.459Z,35.50
2018-07-20T14:11:39.339Z,35.50
2018-07-20T14:14:07.792Z,35.40
2018-07-20T14:16:35.586Z,34.40
2018-07-20T14:19:03.400Z,33.80
2018-07-20T14:21:31.159Z,34.70
2018-07-20T14:23:59.212Z,35.00
2018-07-20T14:26:27.048Z,34.50
2018-07-20T14:28:54.804Z,34.50
2018-07-20T14:31:22.572Z,34.60
2018-07-20T14:33:50.355Z,34.60
2018-07-20T14:36:18.165Z,35.00
2018-07-20T14:38:46.355Z,34.60
2018-07-20T14:43:41.742Z,34.60
2018-07-20T14:46:09.544Z,34.90
2018-07-20T14:58:28.073Z,34.20
2018-07-20T15:00:55.828Z,34.40
2018-07-20T15:05:51.209Z,34.40
2018-07-20T15:08:18.956Z,33.40
2018-07-20T15:10:47.408Z,33.30
2018-07-20T15:13:15.207Z,33.50
2018-07-20T15:15:42.947Z,33.10
2018-07-20T15:18:10.680Z,33.30
2018-07-20T15:25:33.780Z,33.50
2018-07-20T15:28:01.526Z,33.50
2018-07-20T15:32:56.979Z,33.70
2018-07-20T15:35:24.769Z,33.30
2018-07-20T15:37:52.520Z,32.60
2018-07-20T15:40:20.334Z,32.10
2018-07-20T15:42:48.108Z,31.40
2018-07-20T15:45:15.876Z,31.10
2018-07-20T15:47:43.664Z,31.40
2018-07-20T15:50:11.527Z,31.00
2018-07-20T15:55:07.273Z,31.00
2018-07-20T15:57:35.097Z,30.70
2018-07-20T16:00:03.025Z,30.80
2018-07-20T16:02:30.806Z,30.80
2018-07-20T16:04:58.566Z,30.80
2018-07-20T16:07:27.095Z,30.90
2018-07-20T16:12:22.540Z,30.80
2018-07-20T16:17:17.970Z,30.10
2018-07-20T16:22:13.386Z,30.30
2018-07-20T16:24:41.146Z,30.60
2018-07-20T16:27:08.918Z,30.10
2018-07-20T16:29:36.666Z,29.90
2018-07-20T16:32:04.458Z,30.10
2018-07-20T16:34:32.288Z,30.20
2018-07-20T16:37:00.032Z,30.10
2018-07-20T16:39:27.792Z,30.00
2018-07-20T16:41:55.606Z,30.10
2018-07-20T16:44:23.467Z,30.10
2018-07-20T16:46:51.271Z,29.50
2018-07-20T16:49:19.017Z,29.90
2018-07-20T16:51:46.779Z,29.90
2018-07-20T16:54:14.543Z,29.90
2018-07-20T16:56:42.289Z,30.00
2018-07-20T16:59:10.084Z,29.90
2018-07-20T17:01:37.808Z,29.80
2018-07-20T17:04:05.547Z,29.70
2018-07-20T17:06:33.378Z,29.50
2018-07-20T17:09:01.141Z,29.30
2018-07-20T17:11:28.975Z,29.20
2018-07-20T17:13:56.770Z,29.20
2018-07-20T17:16:24.751Z,29.30
2018-07-20T17:18:52.499Z,29.00
2018-07-20T17:21:20.279Z,28.80
2018-07-20T17:23:48.023Z,28.80
2018-07-20T17:26:15.781Z,29.10
2018-07-20T17:28:43.538Z,28.70
2018-07-20T17:33:38.954Z,28.80
2018-07-20T17:36:06.784Z,28.20
2018-07-20T17:38:34.707Z,28.30
2018-07-20T17:41:02.664Z,28.10
2018-07-20T17:43:30.443Z,28.30
2018-07-20T17:45:58.193Z,28.00
2018-07-20T17:50:53.514Z,28.10
2018-07-20T17:53:21.287Z,28.00
2018-07-20T17:55:49.015Z,28.10
2018-07-20T17:58:16.935Z,28.00
2018-07-20T18:03:12.267Z,27.60
2018-07-20T18:05:39.952Z,27.40
2018-07-20T18:08:07.674Z,27.10
2018-07-20T18:10:35.500Z,26.70
2018-07-20T18:13:03.275Z,26.40
2018-07-20T18:15:31.019Z,25.60
2018-07-20T18:17:59.437Z,24.90
2018-07-20T18:20:27.171Z,24.60
2018-07-20T18:22:54.891Z,24.20
2018-07-20T18:27:50.232Z,23.20
2018-07-20T18:30:17.966Z,23.00
2018-07-20T18:35:13.360Z,22.90
2018-07-20T18:37:41.146Z,22.30
2018-07-20T18:40:08.879Z,22.40
2018-07-20T18:42:36.563Z,22.30
2018-07-20T18:45:05.382Z,22.30
2018-07-20T18:47:33.120Z,22.00
2018-07-20T18:50:00.859Z,22.10
2018-07-20T18:52:28.620Z,22.30
2018-07-20T18:54:56.380Z,22.10
2018-07-20T18:57:24.104Z,22.40
2018-07-20T19:02:19.447Z,22.70
2018-07-20T19:04:47.199Z,22.50
2018-07-20T19:09:42.534Z,22.60
2018-07-20T19:12:10.327Z,22.60
2018-07-20T19:14:38.130Z,22.70
2018-07-20T19:19:33.803Z,22.40
2018-07-20T19:22:01.542Z,22.60
2018-07-20T19:26:56.919Z,22.70
2018-07-20T19:29:24.636Z,22.90
2018-07-20T19:31:52.355Z,22.90
2018-07-20T19:34:20.148Z,23.50
2018-07-20T19:36:47.886Z,23.10
2018-07-20T19:39:15.579Z,23.60
2018-07-20T19:44:10.892Z,23.60
2018-07-20T19:46:38.664Z,23.50
2018-07-20T19:51:34.050Z,23.40
2018-07-20T19:54:01.879Z,23.40
2018-07-20T19:56:29.664Z,23.60
2018-07-20T19:58:57.449Z,23.60
2018-07-20T20:01:25.127Z,23.90
2018-07-20T20:03:52.905Z,23.90
2018-07-20T20:06:20.655Z,23.80
2018-07-20T20:08:48.400Z,23.80
2018-07-20T20:11:16.096Z,24.40
2018-07-20T20:13:43.819Z,23.90
2018-07-20T20:16:11.511Z,24.40
2018-07-20T20:18:39.246Z,24.60
2018-07-20T20:21:06.979Z,24.30
2018-07-20T20:26:02.427Z,24.40
2018-07-20T20:28:30.143Z,24.20
2018-07-20T20:30:57.848Z,24.40
2018-07-20T20:33:25.573Z,24.30
2018-07-20T20:35:53.260Z,24.40
2018-07-20T20:38:21.027Z,24.40
2018-07-20T20:40:48.761Z,24.40
2018-07-20T20:43:16.478Z,24.30
2018-07-20T20:45:44.185Z,24.10
2018-07-20T20:48:11.978Z,24.10
2018-07-20T20:55:34.883Z,24.10
2018-07-20T20:58:02.559Z,24.20
2018-07-20T21:00:30.284Z,24.20
2018-07-20T21:05:25.693Z,24.10
2018-07-20T21:07:53.413Z,24.10
2018-07-20T21:10:21.293Z,24.20
2018-07-20T21:12:49.057Z,24.20
2018-07-20T21:15:16.897Z,24.30
2018-07-20T21:17:44.647Z,24.10
2018-07-20T21:20:12.448Z,24.20
2018-07-20T21:22:40.212Z,24.10
2018-07-20T21:25:08.043Z,24.10
2018-07-20T21:30:04.134Z,24.00
2018-07-20T21:32:31.955Z,23.60
2018-07-20T21:34:59.755Z,24.00
2018-07-20T21:37:27.548Z,23.60
2018-07-20T21:39:55.382Z,23.80
2018-07-20T21:42:23.220Z,24.00
2018-07-20T21:44:50.986Z,24.20
2018-07-20T21:47:18.715Z,23.60
2018-07-20T21:52:14.142Z,24.20
2018-07-20T21:57:09.530Z,23.80
2018-07-20T21:59:37.303Z,23.20
2018-07-20T22:02:05.104Z,24.00
2018-07-20T22:07:00.548Z,23.40
2018-07-20T22:09:28.291Z,23.60
2018-07-20T22:11:56.680Z,23.50
2018-07-20T22:14:24.458Z,23.30
2018-07-20T22:16:52.252Z,23.80
2018-07-20T22:19:19.964Z,23.60
2018-07-20T22:21:47.699Z,23.40
2018-07-20T22:24:15.638Z,23.60
2018-07-20T22:26:43.432Z,23.40
2018-07-20T22:29:11.206Z,23.50
2018-07-20T22:31:38.975Z,23.40
2018-07-20T22:34:06.728Z,23.70
2018-07-20T22:36:34.507Z,23.60
2018-07-20T22:39:02.564Z,23.50
2018-07-20T22:41:30.319Z,23.50
2018-07-20T22:43:58.121Z,23.20
2018-07-20T22:48:53.492Z,23.30
2018-07-20T22:53:48.951Z,23.50
2018-07-20T22:58:44.368Z,23.30
2018-07-20T23:01:12.089Z,23.50
2018-07-20T23:03:39.922Z,23.40
2018-07-20T23:06:07.708Z,23.40
2018-07-20T23:13:30.922Z,23.30
2018-07-20T23:15:58.737Z,23.40
2018-07-20T23:18:26.549Z,23.50
2018-07-20T23:20:54.320Z,23.30
2018-07-20T23:23:22.036Z,23.50
2018-07-20T23:25:49.816Z,23.30
2018-07-20T23:30:45.163Z,23.30
2018-07-20T23:33:12.911Z,23.30
2018-07-20T23:38:09.242Z,23.00
2018-07-20T23:40:37.003Z,23.00
2018-07-20T23:43:05.036Z,22.80
2018-07-20T23:45:32.794Z,23.20
2018-07-20T23:48:00.555Z,23.20
2018-07-20T23:50:28.300Z,23.20
2018-07-20T23:57:51.357Z,23.30
